AirNav   Air Wisconsin pilot careers
 
 887 users online  

CA90 Cadiz Airstrip
Cadiz, California, USA

GOING TO CADIZ?


FAA INFORMATION EFFECTIVE 08 NOVEMBER 2018

Location

FAA Identifier: CA90
Lat/Long: 34-30-50.0000N / 115-31-10.0000W
34-30.833333N / 115-31.166667W
34.5138889 / -115.5194444
(estimated)
Elevation: 780 ft. / 238 m
Variation: 13E (2000)
From city: 1 mile S of CADIZ, CA
Time zone: UTC -8 (UTC -7 during Daylight Saving Time)
Zip code: 92304

Airport Operations

Airport use: Private use. Permission required prior to landing
Activation date: 04/2002
Control tower: no
ARTCC: LOS ANGELES CENTER
FSS: RIVERSIDE FLIGHT SERVICE STATION
Attendance: UNATNDD
Wind indicator: yes
Segmented circle: no

Nearby radio navigation aids

VOR radial/distance  VOR name  Freq  Var
TNPr012/27.1TWENTYNINE PALMS VORTAC114.2015E

Airport Services

Runway Information

Runway 8/26

Dimensions: 5280 x 49 ft. / 1609 x 15 m
Surface: asphalt
RUNWAY 8  RUNWAY 26
Traffic pattern: leftleft

Airport Ownership and Management from official FAA records

Ownership: Privately-owned
Owner: CADIZ, INC.
P.O. BOX 535
CADIZ, CA 92304
Phone 760-733-4458
AIRPORT ADDRESS: 14100 PEACH RANCH RD, CADIZ, CA 92304
Manager: LESLEY E. THORNBURG
96726 NATIONAL TRAILS HWY
CADIZ, CA 92304
Phone 760-861-0603
ASSISTANT - ARIEL RAMIREZ - SAME PHONE NO.

Instrument Procedures

There are no published instrument procedures at CA90.

Some nearby airports with instrument procedures:

KTNP - Twentynine Palms Airport (31 nm SW)
KEED - Needles Airport (47 nm E)
KHII - Lake Havasu City Airport (57 nm E)
KUDD - Bermuda Dunes Airport (59 nm SW)
KIFP - Laughlin/Bullhead International Airport (61 nm NE)
 
Loc | Ops | Rwys | IFR | FBO | Links
Com | Nav | Svcs | Stats | Notes


 
Area around CA90 (Cadiz Airstrip)
 
Road maps at: MapQuest Bing Google
 
Aerial photo
No photo
 
Sectional chart

 
Airport distance calculator
Flying to Cadiz Airstrip? Find the distance to fly.

From to CA90

Sunrise and sunset
Times for 17-Nov-2018
 Local
(UTC-8)
 Zulu
(UTC)
Morning civil twilight05:5213:52
Sunrise06:1914:19
Sunset16:3600:36
Evening civil twilight17:0201:02

Current date and time
Zulu (UTC)  17-Nov-2018 22:31:22
Local (UTC-8)  17-Nov-2018 14:31:22
 
METAR
KTNP 
31nm SW 
SuperAWOS
172155Z AUTO 00000KT 10SM 21/M05 A3007
KNXP 
35nm SW 
171656Z AUTO 00000KT 10SM CLR 12/M06 A3014 RMK AO2 SLP186 T01171056
KEED 
47nm E 
172156Z AUTO 00000KT CLR 24/M06 A2998 RMK AO2 SLP133 T02391061
TAF
KNXP 
35nm SW 
1721/1821 VRB05KT 9999 BKN150 QNH2999INS AUTOMATED SENSOR METWATCH 1721 TIL 1915 T22/1721Z T09/1814Z
NOTAMs
Click for the latest NOTAMs
NOTAMs are issued by the DoD/FAA and will open in a separate window not controlled by AirNav.

 

 
 

Would you like to see your business listed on this page?

 If your business provides an interesting product or service to pilots, flight crews, aircraft, or users of the Cadiz Airstrip, you should consider listing it here.  To start the listing process, click on the button below
 
Add a business
 

Other Pages about Cadiz Airstrip

Update a link
 
Copyright © AirNav, LLC. All rights reserved. Privacy Policy  Contact